createdAt,value
2022-12-16T00:01:23.570Z,32.15
2022-12-16T00:03:55.455Z,32.08
2022-12-16T00:06:24.266Z,32.07
2022-12-16T00:08:52.004Z,32.13
2022-12-16T00:11:19.950Z,32.05
2022-12-16T00:13:47.394Z,32.05
2022-12-16T00:16:16.673Z,31.99
2022-12-16T00:18:44.894Z,32.06
2022-12-16T00:21:12.378Z,31.99
2022-12-16T00:23:41.456Z,32.00
2022-12-16T00:26:08.811Z,31.97
2022-12-16T00:28:35.551Z,31.95
2022-12-16T00:31:02.300Z,31.95
2022-12-16T00:33:29.001Z,31.91
2022-12-16T00:35:56.423Z,31.81
2022-12-16T00:38:25.300Z,31.91
2022-12-16T00:40:52.241Z,31.98
2022-12-16T00:43:20.221Z,31.96
2022-12-16T00:45:47.846Z,31.86
2022-12-16T00:48:14.921Z,31.91
2022-12-16T00:50:41.631Z,31.83
2022-12-16T00:53:08.583Z,31.92
2022-12-16T00:55:35.217Z,31.82
2022-12-16T00:58:01.814Z,31.77
2022-12-16T01:00:28.385Z,31.87
2022-12-16T01:05:15.020Z,31.89
2022-12-16T01:07:42.003Z,31.88
2022-12-16T01:10:10.490Z,31.94
2022-12-16T01:12:37.867Z,31.94
2022-12-16T01:15:08.015Z,31.88
2022-12-16T01:17:35.300Z,31.89
2022-12-16T01:20:02.374Z,31.73
2022-12-16T01:22:32.058Z,31.92
2022-12-16T01:24:59.698Z,31.77
2022-12-16T01:27:27.224Z,31.73
2022-12-16T01:29:53.851Z,31.85
2022-12-16T01:32:22.362Z,31.82
2022-12-16T01:34:55.372Z,31.74
2022-12-16T01:37:23.748Z,31.73
2022-12-16T01:39:50.459Z,31.68
2022-12-16T01:42:20.220Z,31.84
2022-12-16T01:44:48.618Z,31.76
2022-12-16T01:47:18.602Z,31.74
2022-12-16T01:49:51.323Z,31.82
2022-12-16T01:52:26.079Z,31.74
2022-12-16T01:55:07.688Z,31.74
2022-12-16T01:57:40.911Z,31.67
2022-12-16T02:00:08.394Z,31.74
2022-12-16T02:02:41.968Z,31.68
2022-12-16T02:05:20.928Z,31.58
2022-12-16T02:08:06.018Z,31.61
2022-12-16T02:10:35.362Z,31.63
2022-12-16T02:13:14.348Z,31.59
2022-12-16T02:15:59.135Z,31.54
2022-12-16T02:18:25.629Z,31.51
2022-12-16T02:21:15.213Z,31.50
2022-12-16T02:23:54.018Z,31.59
2022-12-16T02:26:58.695Z,31.51
2022-12-16T02:29:34.091Z,31.76
2022-12-16T02:32:19.291Z,31.47
2022-12-16T02:34:59.027Z,31.53
2022-12-16T02:37:31.319Z,31.51
2022-12-16T02:40:04.042Z,31.52
2022-12-16T02:42:35.863Z,31.58
2022-12-16T02:45:14.918Z,31.54
2022-12-16T02:47:41.490Z,31.55
2022-12-16T02:50:21.614Z,31.45
2022-12-16T02:52:50.352Z,31.48
2022-12-16T02:55:17.005Z,31.50
2022-12-16T02:58:02.080Z,31.38
2022-12-16T03:00:39.979Z,31.39
2022-12-16T03:03:35.743Z,31.51
2022-12-16T03:06:04.684Z,31.48
2022-12-16T03:08:36.776Z,31.37
2022-12-16T03:11:05.855Z,31.32
2022-12-16T03:13:49.918Z,31.33
2022-12-16T03:16:20.588Z,31.27
2022-12-16T03:18:52.907Z,31.40
2022-12-16T03:21:25.779Z,31.32
2022-12-16T03:24:01.638Z,31.39
2022-12-16T03:26:34.480Z,31.57
2022-12-16T03:29:11.299Z,31.32
2022-12-16T03:32:00.653Z,31.18
2022-12-16T03:34:39.171Z,31.41
2022-12-16T03:37:09.496Z,31.25
2022-12-16T03:39:44.574Z,31.30
2022-12-16T03:42:13.459Z,31.39
2022-12-16T03:44:40.050Z,31.25
2022-12-16T03:47:06.962Z,31.27
2022-12-16T03:49:33.571Z,31.36
2022-12-16T03:52:00.184Z,31.37
2022-12-16T03:54:26.847Z,31.36
2022-12-16T03:56:54.234Z,31.24
2022-12-16T03:59:20.787Z,31.27
2022-12-16T04:01:47.681Z,31.29
2022-12-16T04:04:14.234Z,31.13
2022-12-16T04:06:40.826Z,31.21
2022-12-16T04:11:49.926Z,31.57
2022-12-16T04:14:35.245Z,31.21
2022-12-16T04:17:20.850Z,31.27
2022-12-16T04:20:06.441Z,31.18
2022-12-16T04:22:58.652Z,31.37
2022-12-16T04:25:30.682Z,31.28
2022-12-16T04:27:58.548Z,31.26
2022-12-16T04:30:27.618Z,31.22
2022-12-16T04:33:17.898Z,31.26
2022-12-16T04:36:03.707Z,31.24
2022-12-16T04:38:48.903Z,31.15
2022-12-16T04:41:34.479Z,31.23
2022-12-16T04:44:19.698Z,31.31
2022-12-16T04:47:05.118Z,31.30
2022-12-16T04:49:50.491Z,31.17
2022-12-16T04:52:36.651Z,31.04
2022-12-16T04:55:21.968Z,31.17
2022-12-16T04:58:09.989Z,31.33
2022-12-16T05:00:55.019Z,31.11
2022-12-16T05:03:41.343Z,31.26
2022-12-16T05:06:26.578Z,31.16
2022-12-16T05:09:11.620Z,31.17
2022-12-16T05:11:56.822Z,31.13
2022-12-16T05:14:42.106Z,31.13
2022-12-16T05:17:27.330Z,31.18
2022-12-16T05:20:12.758Z,31.24
2022-12-16T05:22:57.819Z,31.22
2022-12-16T05:25:42.721Z,31.27
2022-12-16T05:28:28.022Z,31.14
2022-12-16T05:31:13.135Z,31.18
2022-12-16T05:33:58.447Z,31.26
2022-12-16T05:36:43.786Z,31.27
2022-12-16T05:39:28.959Z,31.11
2022-12-16T05:42:14.692Z,31.21
2022-12-16T05:44:59.923Z,31.41
2022-12-16T05:47:45.690Z,31.22
2022-12-16T05:50:31.067Z,31.27
2022-12-16T05:53:27.722Z,31.41
2022-12-16T05:56:13.075Z,31.37
2022-12-16T05:58:57.947Z,31.28
2022-12-16T06:01:43.068Z,31.32
2022-12-16T06:04:28.311Z,31.44
2022-12-16T06:07:13.579Z,31.38
2022-12-16T06:09:58.491Z,31.32
2022-12-16T06:12:43.670Z,31.25
2022-12-16T06:15:29.479Z,31.43
2022-12-16T06:18:14.666Z,31.31
2022-12-16T06:21:00.227Z,31.23
2022-12-16T06:23:45.379Z,31.29
2022-12-16T06:26:31.054Z,31.33
2022-12-16T06:29:16.101Z,31.34
2022-12-16T06:32:01.257Z,31.40
2022-12-16T06:34:46.805Z,31.39
2022-12-16T06:37:32.077Z,31.22
2022-12-16T06:40:18.409Z,31.30
2022-12-16T06:43:03.610Z,31.32
2022-12-16T06:45:59.553Z,31.48
2022-12-16T06:48:44.622Z,31.72
2022-12-16T06:51:29.924Z,31.69
2022-12-16T06:54:14.820Z,31.74
2022-12-16T06:57:00.199Z,31.81
2022-12-16T06:59:45.174Z,31.98
2022-12-16T07:02:31.060Z,31.97
2022-12-16T07:05:16.292Z,32.20
2022-12-16T07:08:10.617Z,32.16
2022-12-16T07:11:02.318Z,32.09
2022-12-16T07:13:54.366Z,32.23
2022-12-16T07:16:39.397Z,32.12
2022-12-16T07:19:24.654Z,31.98
2022-12-16T07:22:09.903Z,31.98
2022-12-16T07:24:55.075Z,31.97
2022-12-16T07:27:40.403Z,32.14
2022-12-16T07:30:27.477Z,32.14
2022-12-16T07:33:12.522Z,32.00
2022-12-16T07:36:01.461Z,31.95
2022-12-16T07:38:46.684Z,31.98
2022-12-16T07:41:31.691Z,31.80
2022-12-16T07:44:16.868Z,31.78
2022-12-16T07:47:02.121Z,31.62
2022-12-16T07:49:47.407Z,31.50
2022-12-16T07:52:32.456Z,31.32
2022-12-16T07:55:17.859Z,31.26
2022-12-16T07:58:08.656Z,31.23
2022-12-16T08:00:53.846Z,31.11
2022-12-16T08:03:41.775Z,31.08
2022-12-16T08:06:27.748Z,31.14
2022-12-16T08:09:13.407Z,31.11
2022-12-16T08:11:58.781Z,30.98
2022-12-16T08:14:43.956Z,31.02
2022-12-16T08:17:28.930Z,31.13
2022-12-16T08:20:14.249Z,31.06
2022-12-16T08:22:59.838Z,31.13
2022-12-16T08:25:45.063Z,31.07
2022-12-16T08:28:30.179Z,31.05
2022-12-16T08:31:15.208Z,31.11
2022-12-16T08:34:00.474Z,31.13
2022-12-16T08:36:45.686Z,31.08
2022-12-16T08:39:35.199Z,31.24
2022-12-16T08:42:20.095Z,31.13
2022-12-16T08:45:05.424Z,31.43
2022-12-16T08:47:50.648Z,32.00
2022-12-16T08:50:35.965Z,32.71
2022-12-16T08:53:21.177Z,33.32
2022-12-16T08:56:06.690Z,33.82
2022-12-16T08:58:51.854Z,34.22
2022-12-16T09:01:37.865Z,34.41
2022-12-16T09:04:23.485Z,34.83
2022-12-16T09:07:08.712Z,35.09
2022-12-16T09:09:54.138Z,34.55
2022-12-16T09:12:39.605Z,34.83
2022-12-16T09:17:44.414Z,35.04
2022-12-16T09:20:29.993Z,35.36
2022-12-16T09:23:15.360Z,35.52
2022-12-16T09:26:00.612Z,35.47
2022-12-16T09:28:47.507Z,35.66
2022-12-16T09:31:32.421Z,36.01
2022-12-16T09:34:17.563Z,36.06
2022-12-16T09:37:02.960Z,36.44
2022-12-16T09:39:47.881Z,36.33
2022-12-16T09:43:01.261Z,36.27
2022-12-16T09:46:04.568Z,36.37
2022-12-16T09:49:15.611Z,36.25
2022-12-16T09:52:02.551Z,36.30
2022-12-16T09:54:52.391Z,36.35
2022-12-16T09:57:39.225Z,36.41
2022-12-16T10:00:36.547Z,36.29
2022-12-16T10:03:31.650Z,36.33
2022-12-16T10:06:36.004Z,36.27
2022-12-16T10:09:26.859Z,36.18
2022-12-16T10:12:17.836Z,35.46
2022-12-16T10:15:13.410Z,35.00
2022-12-16T10:18:02.680Z,34.37
2022-12-16T10:20:58.550Z,34.21
2022-12-16T10:24:09.692Z,34.02
2022-12-16T10:27:10.141Z,33.84
2022-12-16T10:30:01.860Z,33.93
2022-12-16T10:33:05.150Z,33.88
2022-12-16T10:36:05.725Z,33.86
2022-12-16T10:39:02.177Z,34.04
2022-12-16T10:41:53.196Z,33.81
2022-12-16T10:44:41.739Z,33.45
2022-12-16T10:47:29.274Z,33.12
2022-12-16T10:50:15.727Z,32.88
2022-12-16T10:53:37.868Z,32.63
2022-12-16T10:56:51.403Z,32.35
2022-12-16T10:59:36.686Z,32.11
2022-12-16T11:02:35.345Z,31.98
2022-12-16T11:05:20.967Z,31.90
2022-12-16T11:08:05.882Z,31.74
2022-12-16T11:10:56.262Z,31.62
2022-12-16T11:13:55.150Z,31.31
2022-12-16T11:16:45.482Z,31.51
2022-12-16T11:19:39.978Z,31.49
2022-12-16T11:22:37.848Z,31.66
2022-12-16T11:25:39.382Z,31.93
2022-12-16T11:28:31.651Z,32.03
2022-12-16T11:31:20.460Z,32.31
2022-12-16T11:34:07.586Z,32.43
2022-12-16T11:36:56.258Z,32.65
2022-12-16T11:39:45.061Z,32.80
2022-12-16T11:42:46.040Z,33.00
2022-12-16T11:45:42.207Z,33.02
2022-12-16T11:48:32.724Z,33.14
2022-12-16T11:51:20.391Z,33.20
2022-12-16T11:54:10.815Z,33.23
2022-12-16T11:57:00.116Z,33.24
2022-12-16T11:59:58.111Z,33.16
2022-12-16T12:04:59.659Z,33.68
2022-12-16T12:08:03.734Z,33.88
2022-12-16T12:11:04.108Z,33.92
2022-12-16T12:13:52.497Z,33.92
2022-12-16T12:17:10.258Z,33.96
2022-12-16T12:20:17.524Z,33.80
2022-12-16T12:23:02.633Z,33.92
2022-12-16T12:26:23.517Z,34.15
2022-12-16T12:29:26.889Z,34.17
2022-12-16T12:32:36.764Z,34.23
2022-12-16T12:35:53.186Z,34.14
2022-12-16T12:38:56.158Z,34.13
2022-12-16T12:42:07.892Z,34.26
2022-12-16T12:45:04.994Z,34.24
2022-12-16T12:47:54.746Z,33.79
2022-12-16T12:50:55.475Z,33.37
2022-12-16T12:53:53.840Z,33.29
2022-12-16T12:56:42.503Z,33.54
2022-12-16T12:59:38.039Z,33.66
2022-12-16T13:02:30.531Z,33.79
2022-12-16T13:05:21.115Z,33.82
2022-12-16T13:08:09.791Z,33.89
2022-12-16T13:10:56.248Z,34.07
2022-12-16T13:13:49.066Z,34.04
2022-12-16T13:16:53.399Z,34.08
2022-12-16T13:19:48.015Z,34.18
2022-12-16T13:22:54.503Z,34.07
2022-12-16T13:25:55.398Z,33.90
2022-12-16T13:28:49.328Z,33.69
2022-12-16T13:31:35.536Z,33.62
2022-12-16T13:34:48.692Z,33.21
2022-12-16T13:37:42.438Z,32.98
2022-12-16T13:40:38.332Z,34.09
2022-12-16T13:43:24.485Z,35.21
2022-12-16T13:46:15.981Z,35.27
2022-12-16T13:49:01.871Z,35.36
2022-12-16T13:51:55.987Z,35.07
2022-12-16T13:54:48.516Z,35.22
2022-12-16T13:57:37.105Z,35.63
2022-12-16T14:00:24.244Z,35.83
2022-12-16T14:03:11.604Z,36.06
2022-12-16T14:06:02.028Z,36.27
2022-12-16T14:08:54.624Z,36.22
2022-12-16T14:11:58.951Z,36.14
2022-12-16T14:15:00.269Z,36.02
2022-12-16T14:18:31.280Z,35.77
2022-12-16T14:21:21.076Z,35.76
2022-12-16T14:24:12.460Z,35.72
2022-12-16T14:26:58.760Z,35.51
2022-12-16T14:29:49.065Z,35.67
2022-12-16T14:32:52.374Z,35.50
2022-12-16T14:35:37.601Z,35.24
2022-12-16T14:39:05.648Z,34.80
2022-12-16T14:41:51.003Z,34.37
2022-12-16T14:44:39.373Z,34.09
2022-12-16T14:47:24.878Z,34.01
2022-12-16T14:50:13.058Z,33.69
2022-12-16T14:52:58.763Z,33.56
2022-12-16T14:55:50.623Z,33.47
2022-12-16T14:58:38.589Z,33.45
2022-12-16T15:01:39.105Z,33.32
2022-12-16T15:04:32.365Z,33.36
2022-12-16T15:07:17.904Z,33.08
2022-12-16T15:10:07.039Z,33.11
2022-12-16T15:13:02.169Z,32.88
2022-12-16T15:16:07.523Z,32.90
2022-12-16T15:18:57.620Z,32.76
2022-12-16T15:21:42.675Z,32.71
2022-12-16T15:24:37.080Z,32.71
2022-12-16T15:27:33.727Z,32.71
2022-12-16T15:30:19.173Z,33.12
2022-12-16T15:33:11.411Z,33.29
2022-12-16T15:35:57.540Z,33.24
2022-12-16T15:38:51.790Z,33.14
2022-12-16T15:41:49.501Z,33.09
2022-12-16T15:44:41.267Z,33.07
2022-12-16T15:47:50.498Z,33.42
2022-12-16T15:50:39.924Z,33.61
2022-12-16T15:53:47.217Z,33.26
2022-12-16T15:56:41.476Z,33.25
2022-12-16T15:59:56.705Z,33.09
2022-12-16T16:02:48.032Z,33.21
2022-12-16T16:05:39.418Z,33.04
2022-12-16T16:08:24.806Z,33.06
2022-12-16T16:11:10.547Z,33.18
2022-12-16T16:13:59.347Z,33.62
2022-12-16T16:16:49.623Z,33.80
2022-12-16T16:19:45.365Z,33.92
2022-12-16T16:22:35.414Z,33.84
2022-12-16T16:25:20.574Z,33.98
2022-12-16T16:28:06.263Z,34.11
2022-12-16T16:30:51.444Z,34.24
2022-12-16T16:33:37.086Z,34.46
2022-12-16T16:36:33.233Z,34.81
2022-12-16T16:39:19.316Z,35.33
2022-12-16T16:42:04.347Z,35.84
2022-12-16T16:44:49.712Z,36.07
2022-12-16T16:50:06.557Z,37.55
2022-12-16T16:52:51.618Z,40.27
2022-12-16T16:55:39.307Z,41.67
2022-12-16T16:58:30.569Z,41.40
2022-12-16T17:01:15.904Z,40.24
2022-12-16T17:04:01.746Z,39.14
2022-12-16T17:06:46.815Z,38.30
2022-12-16T17:09:32.198Z,37.63
2022-12-16T17:12:18.584Z,37.07
2022-12-16T17:15:03.855Z,36.56
2022-12-16T17:17:48.974Z,36.19
2022-12-16T17:20:35.442Z,35.81
2022-12-16T17:23:20.718Z,35.55
2022-12-16T17:26:05.899Z,35.40
2022-12-16T17:28:51.127Z,35.06
2022-12-16T17:31:36.551Z,35.02
2022-12-16T17:34:21.776Z,34.87
2022-12-16T17:37:10.187Z,35.04
2022-12-16T17:39:55.381Z,34.98
2022-12-16T17:42:46.311Z,34.98
2022-12-16T17:45:32.224Z,34.91
2022-12-16T17:48:17.300Z,34.77
2022-12-16T17:53:19.314Z,34.36
2022-12-16T17:56:04.410Z,34.32
2022-12-16T17:59:05.966Z,34.31
2022-12-16T18:01:51.124Z,34.23
2022-12-16T18:04:36.476Z,34.32
2022-12-16T18:07:21.560Z,34.13
2022-12-16T18:10:06.437Z,34.13
2022-12-16T18:12:52.074Z,33.92
2022-12-16T18:15:37.631Z,33.82
2022-12-16T18:18:24.654Z,33.78
2022-12-16T18:21:10.184Z,33.72
2022-12-16T18:23:55.560Z,33.63
2022-12-16T18:26:43.568Z,33.53
2022-12-16T18:29:30.057Z,33.55
2022-12-16T18:32:15.339Z,33.52
2022-12-16T18:35:00.960Z,33.40
2022-12-16T18:37:46.275Z,33.39
2022-12-16T18:40:31.506Z,33.40
2022-12-16T18:43:17.924Z,33.37
2022-12-16T18:46:10.568Z,33.64
2022-12-16T18:48:56.151Z,33.92
2022-12-16T18:51:41.446Z,33.90
2022-12-16T18:54:26.637Z,33.84
2022-12-16T18:57:11.749Z,33.82
2022-12-16T18:59:57.036Z,33.80
2022-12-16T19:02:42.659Z,33.66
2022-12-16T19:05:27.898Z,33.27
2022-12-16T19:08:14.593Z,33.46
2022-12-16T19:10:59.746Z,33.40
2022-12-16T19:13:44.968Z,33.44
2022-12-16T19:16:30.264Z,33.43
2022-12-16T19:19:20.180Z,33.42
2022-12-16T19:22:06.464Z,33.32
2022-12-16T19:24:51.884Z,33.37
2022-12-16T19:27:37.368Z,33.44
2022-12-16T19:30:23.205Z,33.45
2022-12-16T19:33:08.401Z,33.40
2022-12-16T19:35:54.276Z,33.64
2022-12-16T19:38:42.193Z,33.71
2022-12-16T19:41:35.195Z,33.70
2022-12-16T19:44:23.791Z,33.88
2022-12-16T19:47:10.972Z,34.05
2022-12-16T19:49:56.339Z,34.31
2022-12-16T19:52:42.648Z,34.33
2022-12-16T19:55:30.033Z,34.30
2022-12-16T19:58:15.375Z,34.19
2022-12-16T20:01:00.676Z,34.23
2022-12-16T20:03:46.385Z,34.14
2022-12-16T20:06:33.878Z,34.27
2022-12-16T20:09:19.277Z,34.08
2022-12-16T20:12:04.884Z,34.03
2022-12-16T20:14:56.593Z,34.11
2022-12-16T20:17:41.930Z,33.88
2022-12-16T20:20:31.017Z,33.94
2022-12-16T20:23:16.674Z,33.71
2022-12-16T20:26:04.697Z,33.79
2022-12-16T20:28:53.083Z,33.78
2022-12-16T20:31:41.795Z,33.75
2022-12-16T20:34:39.094Z,33.63
2022-12-16T20:37:27.643Z,33.70
2022-12-16T20:40:13.038Z,33.54
2022-12-16T20:43:01.778Z,33.62
2022-12-16T20:45:47.207Z,33.64
2022-12-16T20:48:33.847Z,33.45
2022-12-16T20:51:26.488Z,33.41
2022-12-16T20:54:12.864Z,33.50
2022-12-16T20:56:58.606Z,33.37
2022-12-16T20:59:46.650Z,33.49
2022-12-16T21:02:39.664Z,33.39
2022-12-16T21:05:32.038Z,33.30
2022-12-16T21:08:17.557Z,33.27
2022-12-16T21:11:02.858Z,33.29
2022-12-16T21:13:49.376Z,33.25
2022-12-16T21:16:34.604Z,33.24
2022-12-16T21:19:19.804Z,33.12
2022-12-16T21:22:04.955Z,33.15
2022-12-16T21:24:50.000Z,33.08
2022-12-16T21:27:35.278Z,33.16
2022-12-16T21:30:20.929Z,32.95
2022-12-16T21:33:08.813Z,32.86
2022-12-16T21:35:56.083Z,32.82
2022-12-16T21:38:42.420Z,32.94
2022-12-16T21:41:28.057Z,32.72
2022-12-16T21:44:13.231Z,32.67
2022-12-16T21:46:58.449Z,32.77
2022-12-16T21:49:46.051Z,32.65
2022-12-16T21:52:31.079Z,32.63
2022-12-16T21:55:16.312Z,32.60
2022-12-16T21:58:02.115Z,32.55
2022-12-16T22:00:47.116Z,32.52
2022-12-16T22:03:32.440Z,32.74
2022-12-16T22:06:18.259Z,32.73
2022-12-16T22:09:03.408Z,32.98
2022-12-16T22:11:49.569Z,32.87
2022-12-16T22:14:35.008Z,32.95
2022-12-16T22:17:20.426Z,32.86
2022-12-16T22:20:05.848Z,33.04
2022-12-16T22:22:51.202Z,33.02
2022-12-16T22:25:37.084Z,33.14
2022-12-16T22:28:22.067Z,33.24
2022-12-16T22:31:15.979Z,33.35
2022-12-16T22:34:02.353Z,33.12
2022-12-16T22:36:49.143Z,32.99
2022-12-16T22:39:34.407Z,33.28
2022-12-16T22:42:19.748Z,33.40
2022-12-16T22:45:04.974Z,33.59
2022-12-16T22:47:50.756Z,33.39
2022-12-16T22:50:50.831Z,33.17
2022-12-16T22:53:36.774Z,33.05
2022-12-16T22:56:35.665Z,33.06
2022-12-16T22:59:20.695Z,32.86
2022-12-16T23:02:06.002Z,32.72
2022-12-16T23:04:51.450Z,32.69
2022-12-16T23:07:37.219Z,32.52
2022-12-16T23:10:22.868Z,32.54
2022-12-16T23:13:07.848Z,32.49
2022-12-16T23:15:56.575Z,32.43
2022-12-16T23:18:41.940Z,32.24
2022-12-16T23:21:33.875Z,32.30
2022-12-16T23:24:19.162Z,32.28
2022-12-16T23:27:04.327Z,32.21
2022-12-16T23:29:49.434Z,32.25
2022-12-16T23:35:25.167Z,32.19
2022-12-16T23:40:23.584Z,32.13
2022-12-16T23:43:11.738Z,32.20
2022-12-16T23:45:57.105Z,32.13
2022-12-16T23:48:42.227Z,32.30
2022-12-16T23:51:27.486Z,32.16
2022-12-16T23:54:13.006Z,32.17
2022-12-16T23:56:58.200Z,32.15
2022-12-16T23:59:43.436Z,32.08
